createdAt,value
2023-03-19T00:00:27.209Z,7.90
2023-03-19T00:02:54.249Z,6.80
2023-03-19T00:05:21.211Z,7.07
2023-03-19T00:07:47.879Z,8.27
2023-03-19T00:10:16.011Z,8.10
2023-03-19T00:12:42.658Z,8.60
2023-03-19T00:15:14.012Z,9.85
2023-03-19T00:17:41.678Z,9.73
2023-03-19T00:20:09.768Z,9.25
2023-03-19T00:22:36.513Z,8.23
2023-03-19T00:25:03.801Z,10.77
2023-03-19T00:27:30.734Z,10.15
2023-03-19T00:29:57.384Z,8.25
2023-03-19T00:32:24.027Z,7.68
2023-03-19T00:34:51.021Z,6.07
2023-03-19T00:37:18.215Z,9.95
2023-03-19T00:39:44.862Z,8.63
2023-03-19T00:42:11.994Z,9.73
2023-03-19T00:44:38.669Z,6.53
2023-03-19T00:47:06.910Z,7.95
2023-03-19T00:49:33.488Z,7.95
2023-03-19T00:52:00.273Z,6.65
2023-03-19T00:54:27.393Z,5.85
2023-03-19T00:56:54.021Z,6.78
2023-03-19T00:59:20.782Z,8.07
2023-03-19T01:01:47.693Z,7.13
2023-03-19T01:04:14.941Z,5.88
2023-03-19T01:06:41.952Z,5.10
2023-03-19T01:09:08.857Z,7.35
2023-03-19T01:11:35.894Z,6.60
2023-03-19T01:14:03.126Z,8.50
2023-03-19T01:16:30.221Z,6.72
2023-03-19T01:18:57.114Z,8.07
2023-03-19T01:21:23.846Z,5.60
2023-03-19T01:23:52.163Z,7.45
2023-03-19T01:26:20.460Z,5.05
2023-03-19T01:28:49.752Z,5.55
2023-03-19T01:31:19.850Z,4.18
2023-03-19T01:34:02.869Z,8.10
2023-03-19T01:36:37.499Z,7.43
2023-03-19T01:39:06.397Z,7.20
2023-03-19T01:41:33.830Z,6.05
2023-03-19T01:44:29.718Z,7.50
2023-03-19T01:47:34.297Z,7.50
2023-03-19T01:50:24.859Z,3.60
2023-03-19T01:53:02.190Z,3.50
2023-03-19T01:55:46.855Z,4.68
2023-03-19T01:58:32.796Z,5.38
2023-03-19T02:01:30.248Z,5.55
2023-03-19T02:03:57.217Z,4.90
2023-03-19T02:06:30.207Z,4.72
2023-03-19T02:08:58.644Z,7.05
2023-03-19T02:11:26.208Z,5.60
2023-03-19T02:13:53.413Z,4.72
2023-03-19T02:16:20.377Z,5.80
2023-03-19T02:18:47.469Z,4.70
2023-03-19T02:21:18.346Z,6.13
2023-03-19T02:23:59.318Z,4.45
2023-03-19T02:26:43.325Z,6.03
2023-03-19T02:29:10.195Z,3.45
2023-03-19T02:31:37.398Z,8.70
2023-03-19T02:34:14.331Z,5.45
2023-03-19T02:36:47.405Z,8.60
2023-03-19T02:39:21.534Z,6.90
2023-03-19T02:41:48.999Z,7.32
2023-03-19T02:44:19.850Z,6.85
2023-03-19T02:46:48.648Z,6.45
2023-03-19T02:49:15.324Z,7.25
2023-03-19T02:51:42.130Z,7.45
2023-03-19T02:54:08.921Z,6.32
2023-03-19T02:56:35.731Z,7.70
2023-03-19T02:59:02.963Z,7.60
2023-03-19T03:01:29.990Z,5.80
2023-03-19T03:03:56.748Z,6.10
2023-03-19T03:06:23.381Z,6.78
2023-03-19T03:08:50.219Z,7.40
2023-03-19T03:11:17.449Z,6.35
2023-03-19T03:13:43.998Z,7.85
2023-03-19T03:16:10.665Z,7.70
2023-03-19T03:18:37.698Z,8.35
2023-03-19T03:21:04.452Z,6.78
2023-03-19T03:23:31.602Z,6.70
2023-03-19T03:25:59.850Z,8.45
2023-03-19T03:28:26.514Z,8.35
2023-03-19T03:30:58.968Z,7.70
2023-03-19T03:33:25.866Z,8.07
2023-03-19T03:35:52.778Z,6.72
2023-03-19T03:38:19.681Z,10.70
2023-03-19T03:40:50.602Z,10.95
2023-03-19T03:43:17.903Z,18.40
2023-03-19T03:45:45.254Z,13.43
2023-03-19T03:48:11.970Z,10.02
2023-03-19T03:50:38.840Z,10.23
2023-03-19T03:55:35.734Z,16.92
2023-03-19T03:58:02.941Z,10.63
2023-03-19T04:00:29.756Z,8.77
2023-03-19T04:02:56.574Z,7.68
2023-03-19T04:05:23.504Z,7.80
2023-03-19T04:07:52.880Z,4.75
2023-03-19T04:10:20.195Z,9.38
2023-03-19T04:12:47.596Z,6.95
2023-03-19T04:15:14.501Z,7.43
2023-03-19T04:17:45.354Z,9.65
2023-03-19T04:20:12.507Z,7.05
2023-03-19T04:22:39.156Z,6.90
2023-03-19T04:25:08.232Z,6.57
2023-03-19T04:27:38.457Z,5.47
2023-03-19T04:30:07.236Z,10.07
2023-03-19T04:32:36.952Z,7.05
2023-03-19T04:35:04.061Z,5.88
2023-03-19T04:37:31.355Z,4.63
2023-03-19T04:39:58.183Z,6.43
2023-03-19T04:42:25.066Z,5.80
2023-03-19T04:45:14.802Z,7.78
2023-03-19T04:47:42.546Z,5.70
2023-03-19T04:50:10.496Z,5.75
2023-03-19T04:52:37.710Z,4.15
2023-03-19T04:55:06.179Z,5.22
2023-03-19T04:57:43.839Z,5.75
2023-03-19T05:00:11.325Z,6.85
2023-03-19T05:02:41.264Z,9.60
2023-03-19T05:05:08.655Z,6.07
2023-03-19T05:07:36.336Z,4.47
2023-03-19T05:10:04.809Z,6.53
2023-03-19T05:12:31.954Z,7.57
2023-03-19T05:14:59.263Z,7.75
2023-03-19T05:17:32.644Z,4.45
2023-03-19T05:20:14.744Z,9.20
2023-03-19T05:22:48.360Z,6.88
2023-03-19T05:25:17.190Z,5.68
2023-03-19T05:27:45.392Z,6.70
2023-03-19T05:30:18.703Z,8.00
2023-03-19T05:33:05.796Z,7.30
2023-03-19T05:38:08.080Z,8.00
2023-03-19T05:40:36.058Z,6.95
2023-03-19T05:43:14.330Z,10.02
2023-03-19T05:45:42.481Z,6.05
2023-03-19T05:48:18.841Z,8.10
2023-03-19T05:50:47.246Z,6.63
2023-03-19T05:53:21.433Z,4.30
2023-03-19T05:56:05.155Z,6.60
2023-03-19T05:58:39.609Z,4.55
2023-03-19T06:01:07.028Z,9.02
2023-03-19T06:03:33.871Z,8.52
2023-03-19T06:06:06.302Z,8.48
2023-03-19T06:08:38.214Z,6.95
2023-03-19T06:11:13.435Z,7.15
2023-03-19T06:13:43.298Z,6.60
2023-03-19T06:16:16.742Z,5.65
2023-03-19T06:19:02.367Z,4.45
2023-03-19T06:21:31.415Z,8.73
2023-03-19T06:24:01.840Z,5.88
2023-03-19T06:26:33.550Z,7.72
2023-03-19T06:29:02.727Z,7.70
2023-03-19T06:31:29.587Z,7.47
2023-03-19T06:36:37.180Z,5.60
2023-03-19T06:39:04.100Z,11.23
2023-03-19T06:41:31.376Z,7.82
2023-03-19T06:44:09.003Z,4.10
2023-03-19T06:46:35.930Z,8.50
2023-03-19T06:49:02.879Z,9.52
2023-03-19T06:51:29.452Z,5.65
2023-03-19T06:53:56.646Z,9.27
2023-03-19T06:56:23.317Z,5.28
2023-03-19T06:58:49.914Z,6.05
2023-03-19T07:01:16.588Z,6.05
2023-03-19T07:03:43.201Z,7.45
2023-03-19T07:06:10.223Z,6.40
2023-03-19T07:08:36.956Z,4.63
2023-03-19T07:11:05.864Z,8.85
2023-03-19T07:13:33.223Z,4.45
2023-03-19T07:16:00.313Z,5.68
2023-03-19T07:18:27.173Z,5.00
2023-03-19T07:20:53.912Z,5.97
2023-03-19T07:23:20.568Z,5.00
2023-03-19T07:25:47.640Z,7.47
2023-03-19T07:28:14.697Z,5.95
2023-03-19T07:30:41.321Z,9.68
2023-03-19T07:33:08.285Z,10.38
2023-03-19T07:35:35.008Z,5.28
2023-03-19T07:38:02.625Z,8.15
2023-03-19T07:40:29.512Z,7.78
2023-03-19T07:42:56.141Z,6.05
2023-03-19T07:45:23.240Z,6.13
2023-03-19T07:47:51.374Z,5.20
2023-03-19T07:50:18.148Z,7.43
2023-03-19T07:52:49.118Z,7.00
2023-03-19T07:55:15.829Z,7.40
2023-03-19T07:57:42.528Z,7.75
2023-03-19T08:00:10.710Z,4.97
2023-03-19T08:02:42.795Z,6.07
2023-03-19T08:05:10.101Z,7.35
2023-03-19T08:07:37.126Z,5.57
2023-03-19T08:10:05.271Z,5.63
2023-03-19T08:12:32.557Z,7.82
2023-03-19T08:14:59.186Z,5.53
2023-03-19T08:17:26.138Z,4.47
2023-03-19T08:19:52.755Z,5.07
2023-03-19T08:22:19.391Z,5.75
2023-03-19T08:24:45.981Z,7.45
2023-03-19T08:27:12.563Z,5.95
2023-03-19T08:29:39.282Z,6.80
2023-03-19T08:32:06.467Z,6.65
2023-03-19T08:34:33.398Z,6.47
2023-03-19T08:37:00.063Z,7.07
2023-03-19T08:39:27.310Z,5.40
2023-03-19T08:41:53.999Z,4.93
2023-03-19T08:44:20.960Z,6.68
2023-03-19T08:46:47.871Z,7.10
2023-03-19T08:49:14.469Z,8.32
2023-03-19T08:51:41.306Z,4.90
2023-03-19T08:54:07.913Z,8.30
2023-03-19T08:56:34.497Z,6.32
2023-03-19T08:59:01.121Z,5.78
2023-03-19T09:01:27.861Z,6.72
2023-03-19T09:03:54.755Z,8.75
2023-03-19T09:06:21.620Z,5.78
2023-03-19T09:08:48.239Z,6.70
2023-03-19T09:11:16.833Z,5.93
2023-03-19T09:13:43.729Z,6.88
2023-03-19T09:16:10.576Z,7.05
2023-03-19T09:18:37.356Z,7.78
2023-03-19T09:21:04.051Z,7.45
2023-03-19T09:23:31.203Z,6.10
2023-03-19T09:25:57.929Z,6.53
2023-03-19T09:28:24.703Z,8.00
2023-03-19T09:30:51.633Z,6.85
2023-03-19T09:33:19.921Z,8.00
2023-03-19T09:35:52.653Z,9.25
2023-03-19T09:38:20.977Z,5.50
2023-03-19T09:40:49.684Z,7.78
2023-03-19T09:43:28.327Z,8.80
2023-03-19T09:45:55.063Z,5.40
2023-03-19T09:48:39.196Z,6.78
2023-03-19T09:51:10.450Z,7.40
2023-03-19T09:53:53.361Z,7.78
2023-03-19T09:56:20.038Z,6.32
2023-03-19T09:58:47.626Z,6.57
2023-03-19T10:01:25.376Z,6.90
2023-03-19T10:03:52.114Z,9.60
2023-03-19T10:06:29.208Z,8.38
2023-03-19T10:09:04.926Z,7.10
2023-03-19T10:11:38.399Z,9.02
2023-03-19T10:14:17.082Z,9.20
2023-03-19T10:16:46.702Z,9.25
2023-03-19T10:19:17.969Z,7.65
2023-03-19T10:21:57.108Z,6.50
2023-03-19T10:24:32.161Z,13.97
2023-03-19T10:27:09.043Z,11.45
2023-03-19T10:29:36.670Z,11.93
2023-03-19T10:32:21.535Z,6.97
2023-03-19T10:34:50.906Z,9.20
2023-03-19T10:37:22.597Z,9.93
2023-03-19T10:39:51.104Z,8.68
2023-03-19T10:42:27.504Z,8.07
2023-03-19T10:45:13.311Z,7.55
2023-03-19T10:47:41.218Z,10.27
2023-03-19T10:50:15.901Z,8.45
2023-03-19T10:52:43.049Z,8.57
2023-03-19T10:55:18.742Z,9.73
2023-03-19T10:57:49.696Z,9.95
2023-03-19T11:00:22.883Z,8.05
2023-03-19T11:02:53.158Z,8.65
2023-03-19T11:05:29.308Z,8.43
2023-03-19T11:08:03.301Z,6.28
2023-03-19T11:10:32.050Z,9.43
2023-03-19T11:13:04.703Z,7.18
2023-03-19T11:15:38.265Z,7.53
2023-03-19T11:18:27.374Z,7.65
2023-03-19T11:20:58.161Z,8.27
2023-03-19T11:23:30.615Z,7.35
2023-03-19T11:26:03.657Z,4.90
2023-03-19T11:28:33.715Z,5.97
2023-03-19T11:31:19.214Z,7.57
2023-03-19T11:34:07.814Z,6.50
2023-03-19T11:36:45.113Z,6.93
2023-03-19T11:39:28.860Z,8.07
2023-03-19T11:42:10.668Z,7.97
2023-03-19T11:45:21.492Z,6.43
2023-03-19T11:48:00.635Z,7.60
2023-03-19T11:51:01.140Z,7.85
2023-03-19T11:58:54.374Z,7.43
2023-03-19T12:01:39.122Z,8.07
2023-03-19T12:04:30.882Z,5.95
2023-03-19T12:07:39.432Z,5.75
2023-03-19T12:10:25.331Z,6.72
2023-03-19T12:13:29.717Z,7.45
2023-03-19T12:15:59.502Z,5.50
2023-03-19T12:18:48.024Z,6.25
2023-03-19T12:21:25.364Z,6.75
2023-03-19T12:23:59.878Z,7.63
2023-03-19T12:26:40.356Z,5.05
2023-03-19T12:29:10.119Z,4.80
2023-03-19T12:31:45.808Z,4.03
2023-03-19T12:34:31.772Z,3.40
2023-03-19T12:37:29.054Z,5.93
2023-03-19T12:40:17.784Z,5.10
2023-03-19T12:42:44.468Z,3.20
2023-03-19T12:46:04.498Z,3.60
2023-03-19T12:48:44.459Z,6.10
2023-03-19T12:51:15.141Z,3.70
2023-03-19T12:53:56.305Z,4.00
2023-03-19T12:56:39.062Z,3.13
2023-03-19T12:59:17.456Z,4.43
2023-03-19T13:02:17.086Z,4.32
2023-03-19T13:04:51.480Z,5.20
2023-03-19T13:07:23.478Z,3.58
2023-03-19T13:10:07.344Z,3.35
2023-03-19T13:12:36.025Z,2.95
2023-03-19T13:15:05.520Z,4.97
2023-03-19T13:17:54.096Z,3.80
2023-03-19T13:20:41.865Z,4.18
2023-03-19T13:23:13.997Z,2.63
2023-03-19T13:25:42.776Z,3.60
2023-03-19T13:28:20.835Z,3.50
2023-03-19T13:31:07.449Z,2.08
2023-03-19T13:33:38.945Z,2.47
2023-03-19T13:36:07.880Z,2.35
2023-03-19T13:38:37.322Z,1.58
2023-03-19T13:41:04.527Z,2.77
2023-03-19T13:43:31.664Z,2.78
2023-03-19T13:46:15.690Z,1.80
2023-03-19T13:48:45.463Z,3.50
2023-03-19T13:51:18.049Z,1.83
2023-03-19T13:53:54.938Z,3.65
2023-03-19T13:56:29.948Z,3.35
2023-03-19T13:59:15.653Z,2.92
2023-03-19T14:01:47.080Z,2.08
2023-03-19T14:04:23.579Z,1.70
2023-03-19T14:07:21.155Z,3.08
2023-03-19T14:10:09.531Z,2.75
2023-03-19T14:12:43.893Z,3.35
2023-03-19T14:15:10.470Z,1.58
2023-03-19T14:17:56.622Z,2.72
2023-03-19T14:20:37.591Z,1.90
2023-03-19T14:23:11.347Z,2.55
2023-03-19T14:25:58.943Z,4.82
2023-03-19T14:28:33.159Z,2.92
2023-03-19T14:31:00.024Z,2.20
2023-03-19T14:33:32.687Z,1.77
2023-03-19T14:36:03.415Z,4.15
2023-03-19T14:38:51.405Z,2.75
2023-03-19T14:41:21.592Z,3.63
2023-03-19T14:44:06.698Z,2.00
2023-03-19T14:46:58.829Z,3.33
2023-03-19T14:49:59.513Z,3.13
2023-03-19T14:52:33.286Z,1.23
2023-03-19T14:55:03.647Z,1.30
2023-03-19T14:59:59.771Z,1.65
2023-03-19T15:02:40.577Z,3.42
2023-03-19T15:05:33.578Z,4.60
2023-03-19T15:08:03.922Z,1.45
2023-03-19T15:10:43.799Z,1.60
2023-03-19T15:13:35.275Z,3.28
2023-03-19T15:16:08.149Z,5.05
2023-03-19T15:18:36.696Z,4.40
2023-03-19T15:21:04.778Z,1.58
2023-03-19T15:23:31.866Z,1.23
2023-03-19T15:26:01.060Z,3.47
2023-03-19T15:28:45.844Z,1.80
2023-03-19T15:31:30.016Z,5.20
2023-03-19T15:33:57.920Z,5.45
2023-03-19T15:36:31.844Z,2.72
2023-03-19T15:39:07.949Z,1.40
2023-03-19T15:41:40.240Z,0.68
2023-03-19T15:44:10.905Z,0.40
2023-03-19T15:46:39.340Z,0.65
2023-03-19T15:49:11.190Z,0.40
2023-03-19T15:51:38.561Z,0.68
2023-03-19T15:54:06.774Z,0.45
2023-03-19T15:56:34.545Z,0.65
2023-03-19T15:59:04.013Z,1.10
2023-03-19T16:01:33.091Z,0.30
2023-03-19T16:04:02.376Z,0.60
2023-03-19T16:06:36.629Z,0.93
2023-03-19T16:09:26.895Z,1.13
2023-03-19T16:11:54.446Z,1.50
2023-03-19T16:14:32.295Z,0.38
2023-03-19T16:17:03.988Z,0.90
2023-03-19T16:19:34.508Z,1.38
2023-03-19T16:22:03.062Z,0.40
2023-03-19T16:24:36.122Z,0.50
2023-03-19T16:27:05.826Z,0.45
2023-03-19T16:29:41.655Z,1.33
2023-03-19T16:32:11.378Z,1.38
2023-03-19T16:34:49.204Z,3.63
2023-03-19T16:37:34.714Z,1.00
2023-03-19T16:40:21.348Z,0.80
2023-03-19T16:42:52.521Z,0.45
2023-03-19T16:45:25.281Z,0.47
2023-03-19T16:47:59.975Z,0.40
2023-03-19T16:50:31.868Z,0.60
2023-03-19T16:52:59.894Z,1.15
2023-03-19T16:55:28.875Z,1.17
2023-03-19T16:58:15.463Z,1.40
2023-03-19T17:00:46.734Z,1.17
2023-03-19T17:03:15.963Z,1.42
2023-03-19T17:05:43.304Z,1.40
2023-03-19T17:08:10.210Z,2.03
2023-03-19T17:10:38.365Z,1.00
2023-03-19T17:13:05.551Z,1.27
2023-03-19T17:15:35.973Z,1.95
2023-03-19T17:20:34.393Z,1.60
2023-03-19T17:23:01.439Z,2.20
2023-03-19T17:25:28.728Z,2.28
2023-03-19T17:27:55.610Z,3.03
2023-03-19T17:30:22.249Z,3.15
2023-03-19T17:32:49.694Z,1.20
2023-03-19T17:35:19.211Z,1.20
2023-03-19T17:37:46.813Z,1.55
2023-03-19T17:40:22.725Z,2.42
2023-03-19T17:42:50.155Z,1.40
2023-03-19T17:45:19.138Z,1.52
2023-03-19T17:47:53.228Z,4.18
2023-03-19T17:50:25.762Z,2.00
2023-03-19T17:52:52.971Z,3.22
2023-03-19T17:55:25.559Z,1.90
2023-03-19T17:57:53.100Z,2.25
2023-03-19T18:00:21.869Z,2.65
2023-03-19T18:02:50.201Z,4.32
2023-03-19T18:05:18.766Z,3.97
2023-03-19T18:07:46.123Z,4.18
2023-03-19T18:10:26.493Z,6.05
2023-03-19T18:15:21.950Z,4.65
2023-03-19T18:17:51.128Z,4.00
2023-03-19T18:20:19.494Z,4.43
2023-03-19T18:22:46.316Z,5.03
2023-03-19T18:25:21.857Z,5.13
2023-03-19T18:27:49.046Z,5.40
2023-03-19T18:30:18.683Z,4.53
2023-03-19T18:32:48.226Z,5.40
2023-03-19T18:35:19.974Z,5.57
2023-03-19T18:37:49.722Z,243.43
2023-03-19T18:40:19.300Z,11.55
2023-03-19T18:42:47.253Z,33.80
2023-03-19T18:45:15.361Z,22.63
2023-03-19T18:47:42.902Z,16.95
2023-03-19T18:50:23.877Z,44.17
2023-03-19T18:52:52.483Z,16.20
2023-03-19T18:55:20.935Z,14.32
2023-03-19T18:57:53.717Z,42.85
2023-03-19T19:00:27.601Z,386.02
2023-03-19T19:02:54.819Z,355.10
2023-03-19T19:05:23.813Z,17.48
2023-03-19T19:07:51.394Z,31.00
2023-03-19T19:10:18.608Z,23.98
2023-03-19T19:12:47.245Z,277.35
2023-03-19T19:15:23.564Z,135.13
2023-03-19T19:17:50.637Z,104.35
2023-03-19T19:20:19.590Z,126.88
2023-03-19T19:22:46.339Z,48.60
2023-03-19T19:25:19.471Z,54.47
2023-03-19T19:27:47.449Z,499.88
2023-03-19T19:30:19.162Z,580.53
2023-03-19T19:32:46.621Z,104.18
2023-03-19T19:35:27.621Z,398.38
2023-03-19T19:37:55.361Z,478.40
2023-03-19T19:40:27.886Z,182.95
2023-03-19T19:42:54.644Z,152.05
2023-03-19T19:45:26.165Z,141.50
2023-03-19T19:47:53.026Z,28.48
2023-03-19T19:50:21.977Z,101.25
2023-03-19T19:52:48.791Z,87.93
2023-03-19T19:55:16.490Z,90.50
2023-03-19T19:57:43.973Z,67.20
2023-03-19T20:00:29.710Z,60.45
2023-03-19T20:02:58.495Z,47.75
2023-03-19T20:05:32.879Z,36.53
2023-03-19T20:08:02.170Z,20.05
2023-03-19T20:10:30.578Z,18.92
2023-03-19T20:13:00.282Z,25.88
2023-03-19T20:15:29.813Z,15.82
2023-03-19T20:17:56.589Z,24.17
2023-03-19T20:20:32.397Z,20.35
2023-03-19T20:23:01.658Z,17.00
2023-03-19T20:25:30.608Z,19.58
2023-03-19T20:27:59.378Z,16.83
2023-03-19T20:30:34.109Z,20.25
2023-03-19T20:33:02.176Z,21.60
2023-03-19T20:35:31.427Z,19.92
2023-03-19T20:38:00.205Z,25.55
2023-03-19T20:40:31.613Z,26.30
2023-03-19T20:42:58.787Z,29.65
2023-03-19T20:45:28.406Z,26.58
2023-03-19T20:47:55.075Z,26.30
2023-03-19T20:50:28.589Z,27.13
2023-03-19T20:53:00.866Z,28.70
2023-03-19T20:55:30.483Z,25.58
2023-03-19T20:57:57.194Z,25.40
2023-03-19T21:00:29.240Z,24.13
2023-03-19T21:02:57.549Z,27.15
2023-03-19T21:05:36.463Z,27.95
2023-03-19T21:08:13.804Z,32.15
2023-03-19T21:10:44.276Z,27.75
2023-03-19T21:13:16.845Z,24.60
2023-03-19T21:15:44.865Z,27.55
2023-03-19T21:18:12.552Z,26.88
2023-03-19T21:20:41.175Z,26.02
2023-03-19T21:23:20.064Z,27.38
2023-03-19T21:25:47.192Z,25.88
2023-03-19T21:28:26.582Z,23.08
2023-03-19T21:30:53.502Z,22.23
2023-03-19T21:33:27.033Z,24.08
2023-03-19T21:35:55.272Z,24.70
2023-03-19T21:38:22.642Z,20.80
2023-03-19T21:40:52.065Z,23.42
2023-03-19T21:43:22.534Z,22.80
2023-03-19T21:45:52.483Z,19.83
2023-03-19T21:48:20.140Z,17.95
2023-03-19T21:50:49.928Z,18.95
2023-03-19T21:53:17.746Z,22.17
2023-03-19T21:55:45.430Z,24.10
2023-03-19T21:58:15.271Z,24.67
2023-03-19T22:00:42.188Z,25.88
2023-03-19T22:03:17.348Z,21.63
2023-03-19T22:05:44.689Z,20.00
2023-03-19T22:08:12.028Z,20.02
2023-03-19T22:10:40.621Z,18.63
2023-03-19T22:13:07.859Z,20.17
2023-03-19T22:15:37.437Z,19.30
2023-03-19T22:18:06.925Z,20.23
2023-03-19T22:20:33.734Z,19.88
2023-03-19T22:23:00.453Z,16.95
2023-03-19T22:25:30.377Z,16.50
2023-03-19T22:27:57.326Z,17.07
2023-03-19T22:30:33.197Z,16.90
2023-03-19T22:33:00.842Z,16.55
2023-03-19T22:35:27.734Z,16.20
2023-03-19T22:37:54.550Z,16.02
2023-03-19T22:40:21.263Z,15.75
2023-03-19T22:42:49.209Z,15.27
2023-03-19T22:45:27.767Z,15.77
2023-03-19T22:47:56.733Z,18.48
2023-03-19T22:50:29.061Z,17.90
2023-03-19T22:52:56.860Z,17.67
2023-03-19T22:55:23.885Z,17.80
2023-03-19T22:57:51.602Z,19.40
2023-03-19T23:00:21.332Z,20.77
2023-03-19T23:02:57.931Z,19.02
2023-03-19T23:05:31.689Z,21.67
2023-03-19T23:07:58.333Z,18.83
2023-03-19T23:10:27.714Z,20.92
2023-03-19T23:12:55.644Z,19.42
2023-03-19T23:15:24.632Z,19.38
2023-03-19T23:17:55.447Z,20.02
2023-03-19T23:20:23.492Z,20.20
2023-03-19T23:22:50.627Z,20.35
2023-03-19T23:25:19.633Z,19.60
2023-03-19T23:27:46.973Z,20.77
2023-03-19T23:30:20.053Z,23.80
2023-03-19T23:32:47.486Z,22.67
2023-03-19T23:35:25.410Z,21.33
2023-03-19T23:37:54.946Z,23.08
2023-03-19T23:40:22.687Z,24.03
2023-03-19T23:42:54.613Z,20.10
2023-03-19T23:45:31.777Z,22.27
2023-03-19T23:48:01.687Z,24.17
2023-03-19T23:50:28.472Z,23.88
2023-03-19T23:52:55.578Z,23.75
2023-03-19T23:55:22.539Z,27.17
2023-03-19T23:57:49.484Z,22.58
